Time;durP1;ratioP1;P1;durP2;ratioP2;P2;SDS_P1;SDS_P2;PMS_P1;PMS_P2;Temp;Humidity;BMP_temperature;BMP_pressure;BME280_temperature;BME280_humidity;BME280_pressure;Samples;Min_cycle;Max_cycle;Signal;HPM_P1;HPM_P2
2021/05/12 00:00:12;;;;;;;;;;;;;;;22.34;56.83;100092.84;2101671;28;4010;-37
2021/05/12 00:01:13;;;;;;;;;;;;;;;22.34;56.78;100090.81;2101690;28;4017;-32
2021/05/12 00:02:14;;;;;;;;;;;;;;;22.34;56.73;100093.66;2092606;28;4018;-36
2021/05/12 00:03:16;;;;;;;;;;;;;;;22.34;56.87;100107.91;2092507;28;4095;-37
2021/05/12 00:04:17;;;;;;;;;;;;;;;22.33;56.63;100102.59;2097290;28;4010;-36
2021/05/12 00:05:18;;;;;;;;;;;;;;;22.33;56.78;100113.97;2101048;28;4035;-34
2021/05/12 00:06:19;;;;;;;;;;;;;;;22.32;56.67;100118.03;2093454;28;3982;-36
2021/05/12 00:07:21;;;;;;;;;;;;;;;22.31;56.74;100107.88;2100845;28;4059;-39
2021/05/12 00:08:22;;;;;;;;;;;;;;;22.31;56.56;100114.38;2101638;28;4162;-34
2021/05/12 00:09:23;;;;;;;;;;;;;;;22.32;56.54;100116.00;2097585;28;3826;-35
2021/05/12 00:10:24;;;;;;;;;;;;;;;22.33;56.49;100113.97;2099308;28;3856;-39
2021/05/12 00:11:26;;;;;;;;;;;;;;;22.31;56.55;100108.69;2101736;28;4232;-36
2021/05/12 00:12:27;;;;;;;;;;;;;;;22.31;56.63;100107.88;2101331;28;3875;-34
2021/05/12 00:13:28;;;;;;;;;;;;;;;22.30;56.42;100109.03;2101219;28;3901;-35
2021/05/12 00:14:31;;;;;;;;;;;;;;;22.29;56.50;100111.06;2101427;28;4040;-36
2021/05/12 00:15:32;;;;;;;;;;;;;;;22.29;56.52;100119.63;2101457;28;4065;-38
2021/05/12 00:16:33;;;;;;;;;;;;;;;22.29;56.54;100122.47;2101082;28;4038;-37
2021/05/12 00:17:37;;;;;;;;;;;;;;;22.29;56.48;100130.22;2101180;28;4034;-35
2021/05/12 00:18:41;;;;;;;;;;;;;;;22.29;56.36;100127.34;2100683;28;4074;-38
2021/05/12 00:19:43;;;;;;;;;;;;;;;22.29;56.39;100130.22;2101929;28;3880;-38
2021/05/12 00:20:44;;;;;;;;;;;;;;;22.28;56.38;100134.28;2101827;28;4022;-36
2021/05/12 00:21:58;;;;;;;;;;;;;;;22.29;56.14;100139.56;2100578;28;4131;-33
2021/05/12 00:23:06;;;;;;;;;;;;;;;22.28;56.32;100142.81;2101700;28;3987;-36
2021/05/12 00:24:08;;;;;;;;;;;;;;;22.28;56.33;100134.28;2101255;28;5409;-33
2021/05/12 00:25:09;;;;;;;;;;;;;;;22.26;56.34;100137.47;2100418;28;3894;-32
2021/05/12 00:26:10;;;;;;;;;;;;;;;22.26;56.25;100125.28;2100632;28;3919;-35
2021/05/12 00:27:12;;;;;;;;;;;;;;;22.25;56.25;100141.56;2101890;28;3861;-38
2021/05/12 00:28:13;;;;;;;;;;;;;;;22.24;56.26;100140.69;2100691;28;3890;-34
2021/05/12 00:29:14;;;;;;;;;;;;;;;22.27;56.21;100144.00;2101688;28;4142;-34
2021/05/12 00:30:15;;;;;;;;;;;;;;;22.27;56.13;100139.13;2099640;28;4062;-38
2021/05/12 00:31:17;;;;;;;;;;;;;;;22.26;56.17;100139.53;2100869;28;4061;-35
2021/05/12 00:32:18;;;;;;;;;;;;;;;22.26;56.24;100128.13;2101258;28;4031;-38
2021/05/12 00:33:19;;;;;;;;;;;;;;;22.26;56.08;100133.81;2097135;28;4006;-36
2021/05/12 00:34:20;;;;;;;;;;;;;;;22.27;56.06;100138.31;2101565;28;4080;-36
2021/05/12 00:35:21;;;;;;;;;;;;;;;22.27;56.19;100141.16;2098087;28;4034;-34
2021/05/12 00:36:23;;;;;;;;;;;;;;;22.24;56.26;100140.69;2101176;28;4009;-37
2021/05/12 00:37:24;;;;;;;;;;;;;;;22.25;56.02;100138.69;2100823;28;3998;-36
2021/05/12 00:38:25;;;;;;;;;;;;;;;22.25;55.97;100135.84;2101705;28;4347;-38
2021/05/12 00:39:26;;;;;;;;;;;;;;;22.24;56.16;100126.44;2101796;28;4057;-31
2021/05/12 00:40:27;;;;;;;;;;;;;;;22.25;56.11;100135.84;2101915;28;4005;-38
2021/05/12 00:41:29;;;;;;;;;;;;;;;22.24;56.24;100132.16;2101636;28;4191;-36
2021/05/12 00:42:30;;;;;;;;;;;;;;;22.22;55.99;100131.72;2101035;28;5051;-37
2021/05/12 00:43:31;;;;;;;;;;;;;;;22.24;56.08;100128.47;2101448;28;4128;-35
2021/05/12 00:44:32;;;;;;;;;;;;;;;22.24;56.00;100131.34;2101775;28;4052;-35
2021/05/12 00:45:34;;;;;;;;;;;;;;;22.23;56.05;100135.41;2101662;28;4034;-33
2021/05/12 00:46:35;;;;;;;;;;;;;;;22.22;56.01;100134.56;2100878;28;3924;-37
2021/05/12 00:47:36;;;;;;;;;;;;;;;22.24;55.87;100131.34;2101711;28;4020;-34
2021/05/12 00:48:39;;;;;;;;;;;;;;;22.23;55.93;100139.06;2101255;28;3885;-36
2021/05/12 00:49:40;;;;;;;;;;;;;;;22.23;55.98;100129.69;2101539;28;4068;-39
2021/05/12 00:50:41;;;;;;;;;;;;;;;22.22;55.93;100143.13;2100927;28;4123;-37
2021/05/12 00:51:42;;;;;;;;;;;;;;;22.22;55.94;100139.47;2100938;28;4053;-38
2021/05/12 00:52:43;;;;;;;;;;;;;;;22.20;55.74;100136.97;2100571;28;3888;-37
2021/05/12 00:53:45;;;;;;;;;;;;;;;22.20;55.92;100128.44;2101462;28;4032;-38
2021/05/12 00:54:46;;;;;;;;;;;;;;;22.20;55.69;100133.31;2101646;28;3874;-36
2021/05/12 00:55:47;;;;;;;;;;;;;;;22.18;55.84;100135.69;2100768;28;4027;-34
2021/05/12 00:56:48;;;;;;;;;;;;;;;22.17;55.99;100140.56;2100799;28;4048;-36
2021/05/12 00:57:50;;;;;;;;;;;;;;;22.17;55.92;100148.28;2100067;28;4024;-36
2021/05/12 00:58:52;;;;;;;;;;;;;;;22.18;56.01;100141.41;2101233;28;4905;-36
2021/05/12 00:59:53;;;;;;;;;;;;;;;22.18;55.64;100158.50;2100884;28;3814;-37
2021/05/12 01:00:55;;;;;;;;;;;;;;;22.17;55.71;100159.69;2101190;28;3994;-34
2021/05/12 01:01:56;;;;;;;;;;;;;;;22.18;55.82;100167.03;2100193;28;4100;-33
2021/05/12 01:02:57;;;;;;;;;;;;;;;22.17;55.77;100174.75;2101335;28;3851;-38
2021/05/12 01:03:58;;;;;;;;;;;;;;;22.17;55.75;100171.88;2101226;28;3866;-34
2021/05/12 01:05:00;;;;;;;;;;;;;;;22.17;55.80;100171.06;2100179;28;3844;-37
2021/05/12 01:06:01;;;;;;;;;;;;;;;22.17;55.64;100173.91;2100629;28;3919;-36
2021/05/12 01:07:02;;;;;;;;;;;;;;;22.17;55.59;100174.75;2099528;28;4071;-32
2021/05/12 01:08:04;;;;;;;;;;;;;;;22.16;55.66;100169.41;2101608;28;3965;-38
2021/05/12 01:09:05;;;;;;;;;;;;;;;22.16;55.70;100175.91;2101506;28;4012;-34
2021/05/12 01:10:06;;;;;;;;;;;;;;;22.16;55.62;100184.47;2099977;28;3952;-35
2021/05/12 01:11:07;;;;;;;;;;;;;;;22.16;55.53;100187.31;2100291;28;3747;-35
2021/05/12 01:12:08;;;;;;;;;;;;;;;22.15;55.58;100191.38;2100351;28;4436;-33
2021/05/12 01:13:11;;;;;;;;;;;;;;;22.16;55.54;100193.00;2101284;28;4037;-38
2021/05/12 01:14:12;;;;;;;;;;;;;;;22.16;55.55;100192.19;2101551;28;4194;-37
2021/05/12 01:15:13;;;;;;;;;;;;;;;22.16;55.62;100198.72;2101213;28;4021;-36
2021/05/12 01:16:15;;;;;;;;;;;;;;;22.15;55.65;100202.78;2100819;28;3778;-34
2021/05/12 01:17:16;;;;;;;;;;;;;;;22.16;55.68;100204.41;2102785;28;4065;-38
2021/05/12 01:18:17;;;;;;;;;;;;;;;22.15;55.46;100199.09;2100827;28;4065;-34
2021/05/12 01:19:19;;;;;;;;;;;;;;;22.16;55.49;100197.91;2101602;28;4262;-33
2021/05/12 01:20:20;;;;;;;;;;;;;;;22.14;55.62;100198.28;2102968;28;4011;-38
2021/05/12 01:21:21;;;;;;;;;;;;;;;22.14;55.42;100195.44;2100104;28;4142;-33
2021/05/12 01:22:22;;;;;;;;;;;;;;;22.14;55.68;100198.28;2102225;28;4053;-37
2021/05/12 01:23:24;;;;;;;;;;;;;;;22.14;55.62;100203.16;2102561;28;4068;-38
2021/05/12 01:24:25;;;;;;;;;;;;;;;22.15;55.60;100196.25;2100569;28;3847;-34
2021/05/12 01:25:26;;;;;;;;;;;;;;;22.13;55.34;100196.63;2102475;28;3890;-37
2021/05/12 01:26:27;;;;;;;;;;;;;;;22.13;55.35;100188.06;2101197;28;4016;-30
2021/05/12 01:27:28;;;;;;;;;;;;;;;22.12;55.47;100192.13;2100434;28;4045;-36
2021/05/12 01:28:30;;;;;;;;;;;;;;;22.13;55.49;100192.94;2100466;28;4222;-36
2021/05/12 01:29:31;;;;;;;;;;;;;;;22.13;55.39;100192.94;2099294;28;3906;-35
2021/05/12 01:30:32;;;;;;;;;;;;;;;22.12;55.39;100189.28;2099876;28;3886;-34
2021/05/12 01:31:33;;;;;;;;;;;;;;;22.13;55.31;100188.06;2100726;28;3998;-35
2021/05/12 01:32:35;;;;;;;;;;;;;;;22.13;55.33;100192.94;2101513;28;4181;-37
2021/05/12 01:33:36;;;;;;;;;;;;;;;22.12;55.40;100186.44;2102392;28;4027;-37
2021/05/12 01:34:37;;;;;;;;;;;;;;;22.11;55.27;100181.94;2099207;28;3862;-34
2021/05/12 01:35:38;;;;;;;;;;;;;;;22.11;55.35;100190.50;2102967;28;4025;-33
2021/05/12 01:36:40;;;;;;;;;;;;;;;22.10;55.21;100174.59;2102217;28;3815;-37
2021/05/12 01:37:41;;;;;;;;;;;;;;;22.11;55.31;100189.66;2102082;28;3870;-36
2021/05/12 01:38:42;;;;;;;;;;;;;;;22.11;55.29;100187.66;2102258;28;4054;-34
2021/05/12 01:39:43;;;;;;;;;;;;;;;22.10;55.14;100188.00;2103021;28;4017;-37
2021/05/12 01:40:45;;;;;;;;;;;;;;;22.10;55.14;100197.38;2102865;28;4191;-35
2021/05/12 01:41:46;;;;;;;;;;;;;;;22.09;55.29;100198.59;2102787;28;4238;-34
2021/05/12 01:42:47;;;;;;;;;;;;;;;22.09;55.18;100197.78;2101277;28;4028;-36
2021/05/12 01:43:48;;;;;;;;;;;;;;;22.10;55.11;100200.22;2102746;28;4065;-38
2021/05/12 01:44:49;;;;;;;;;;;;;;;22.10;55.04;100197.38;2101738;28;4029;-37
2021/05/12 01:45:52;;;;;;;;;;;;;;;22.09;55.22;100198.59;2102537;28;4010;-36
2021/05/12 01:46:53;;;;;;;;;;;;;;;22.09;55.10;100204.28;2099066;28;4977;-34
2021/05/12 01:47:56;;;;;;;;;;;;;;;22.09;55.07;100207.13;2102728;28;4044;-34
2021/05/12 01:48:57;;;;;;;;;;;;;;;22.09;55.08;100203.47;2102708;28;4166;-33
2021/05/12 01:49:59;;;;;;;;;;;;;;;22.09;55.07;100209.16;2102248;28;3992;-36
2021/05/12 01:51:01;;;;;;;;;;;;;;;22.08;55.15;100210.34;2103046;28;4018;-36
2021/05/12 01:52:02;;;;;;;;;;;;;;;22.08;55.02;100205.50;2098668;28;3971;-37
2021/05/12 01:53:03;;;;;;;;;;;;;;;22.07;55.04;100195.28;2102410;28;3954;-34
2021/05/12 01:54:07;;;;;;;;;;;;;;;22.08;55.04;100190.41;2102620;28;3854;-36
2021/05/12 01:55:08;;;;;;;;;;;;;;;22.07;55.04;100200.97;2102330;28;4932;-35
2021/05/12 01:56:09;;;;;;;;;;;;;;;22.07;55.19;100198.13;2101971;28;4033;-35
2021/05/12 01:57:11;;;;;;;;;;;;;;;22.07;55.06;100194.47;2101925;28;4048;-37
2021/05/12 01:58:12;;;;;;;;;;;;;;;22.05;55.06;100197.69;2099472;28;4015;-37
2021/05/12 01:59:13;;;;;;;;;;;;;;;22.06;54.91;100192.81;2102782;28;4036;-36
2021/05/12 02:00:14;;;;;;;;;;;;;;;22.05;54.87;100189.13;2099006;28;3912;-37
2021/05/12 02:01:16;;;;;;;;;;;;;;;22.06;55.00;100187.94;2102492;28;4033;-35
2021/05/12 02:02:17;;;;;;;;;;;;;;;22.05;54.86;100189.13;2101072;28;4025;-35
2021/05/12 02:03:18;;;;;;;;;;;;;;;22.05;54.90;100174.88;2102125;28;4093;-35
2021/05/12 02:04:19;;;;;;;;;;;;;;;22.05;54.80;100168.38;2102554;28;3882;-35
2021/05/12 02:05:21;;;;;;;;;;;;;;;22.05;54.74;100174.88;2099509;28;4114;-37
2021/05/12 02:06:22;;;;;;;;;;;;;;;22.04;54.98;100173.25;2102491;28;3994;-33
2021/05/12 02:07:23;;;;;;;;;;;;;;;22.05;54.82;100186.28;2101789;28;4066;-38
2021/05/12 02:08:24;;;;;;;;;;;;;;;22.05;54.91;100185.47;2099069;28;4029;-33
2021/05/12 02:09:25;;;;;;;;;;;;;;;22.05;54.81;100185.47;2101981;28;4293;-36
2021/05/12 02:10:27;;;;;;;;;;;;;;;22.04;54.72;100184.66;2102424;28;4061;-36
2021/05/12 02:11:28;;;;;;;;;;;;;;;22.04;54.65;100178.13;2102180;28;4045;-32
2021/05/12 02:12:29;;;;;;;;;;;;;;;22.02;54.85;100185.00;2101561;28;4056;-33
2021/05/12 02:13:31;;;;;;;;;;;;;;;22.02;54.66;100178.50;2102241;28;4146;-31
2021/05/12 02:14:32;;;;;;;;;;;;;;;22.01;54.68;100174.81;2102171;28;3911;-38
2021/05/12 02:15:33;;;;;;;;;;;;;;;22.01;54.61;100174.81;2102316;28;3885;-36
2021/05/12 02:16:36;;;;;;;;;;;;;;;22.01;54.53;100169.13;2093604;28;3911;-31
2021/05/12 02:17:37;;;;;;;;;;;;;;;22.01;54.57;100174.00;2093171;28;4020;-35
2021/05/12 02:18:38;;;;;;;;;;;;;;;22.01;54.69;100171.16;2101937;28;3881;-35
2021/05/12 02:19:39;;;;;;;;;;;;;;;22.01;54.71;100185.41;2102042;28;3871;-35
2021/05/12 02:20:41;;;;;;;;;;;;;;;22.01;54.52;100182.56;2102243;28;4048;-38
2021/05/12 02:21:42;;;;;;;;;;;;;;;22.01;54.50;100185.41;2101767;28;4078;-32
2021/05/12 02:22:43;;;;;;;;;;;;;;;22.01;54.50;100183.38;2102022;28;3931;-35
2021/05/12 02:23:44;;;;;;;;;;;;;;;22.02;54.56;100181.34;2101852;28;4044;-36
2021/05/12 02:24:46;;;;;;;;;;;;;;;22.01;54.46;100179.72;2102638;28;4030;-34
2021/05/12 02:25:47;;;;;;;;;;;;;;;22.01;54.60;100182.56;2101711;28;4217;-38
2021/05/12 02:26:48;;;;;;;;;;;;;;;22.01;54.58;100188.25;2102817;28;3880;-35
2021/05/12 02:27:50;;;;;;;;;;;;;;;22.02;54.57;100189.88;2100484;28;4017;-39
2021/05/12 02:28:51;;;;;;;;;;;;;;;22.01;54.40;100197.63;2100476;28;4047;-34
2021/05/12 02:29:53;;;;;;;;;;;;;;;22.01;54.43;100206.16;2102338;28;4009;-35
2021/05/12 02:30:55;;;;;;;;;;;;;;;22.00;54.41;100203.69;2102515;28;4087;-36
2021/05/12 02:31:56;;;;;;;;;;;;;;;22.00;54.45;100207.38;2101876;28;3878;-35
2021/05/12 02:32:58;;;;;;;;;;;;;;;22.00;54.44;100209.41;2102141;28;4006;-34
2021/05/12 02:33:59;;;;;;;;;;;;;;;22.00;54.42;100215.09;2101276;28;3998;-33
2021/05/12 02:35:00;;;;;;;;;;;;;;;22.00;54.34;100215.09;2102550;28;4138;-31
2021/05/12 02:36:01;;;;;;;;;;;;;;;22.00;54.50;100217.94;2101860;28;4024;-32
2021/05/12 02:37:03;;;;;;;;;;;;;;;22.00;54.48;100220.78;2102139;28;3986;-36
2021/05/12 02:38:04;;;;;;;;;;;;;;;22.00;54.51;100212.25;2100506;28;3974;-32
2021/05/12 02:39:05;;;;;;;;;;;;;;;22.00;54.31;100212.25;2101738;28;3943;-39
2021/05/12 02:40:06;;;;;;;;;;;;;;;21.99;54.38;100211.41;2101527;28;4024;-34
2021/05/12 02:41:08;;;;;;;;;;;;;;;21.99;54.52;100207.72;2102297;28;3883;-36
2021/05/12 02:42:09;;;;;;;;;;;;;;;22.00;54.47;100212.25;2101988;28;4805;-35
2021/05/12 02:43:11;;;;;;;;;;;;;;;21.98;54.34;100209.75;2101490;28;4061;-36
2021/05/12 02:44:12;;;;;;;;;;;;;;;21.98;54.30;100208.94;2102040;28;4216;-33
2021/05/12 02:45:13;;;;;;;;;;;;;;;21.99;54.44;100213.44;2102243;28;4033;-38
2021/05/12 02:46:21;;;;;;;;;;;;;;;21.98;54.32;100211.78;2101832;28;3885;-33
2021/05/12 02:47:22;;;;;;;;;;;;;;;21.98;54.27;100214.63;2102297;28;3927;-32
2021/05/12 02:48:24;;;;;;;;;;;;;;;21.98;54.20;100214.63;2100621;28;3925;-35
2021/05/12 02:49:25;;;;;;;;;;;;;;;21.99;54.22;100210.59;2102020;28;4043;-35
2021/05/12 02:50:26;;;;;;;;;;;;;;;21.99;54.35;100210.59;2101933;28;4173;-36
2021/05/12 02:51:28;;;;;;;;;;;;;;;21.98;54.37;100214.63;2102375;28;4080;-39
2021/05/12 02:52:29;;;;;;;;;;;;;;;21.98;54.17;100211.78;2102001;28;3869;-36
2021/05/12 02:53:30;;;;;;;;;;;;;;;21.98;54.22;100211.78;2100414;28;3866;-38
2021/05/12 02:54:32;;;;;;;;;;;;;;;21.98;54.33;100208.94;2101855;28;4031;-35
2021/05/12 02:55:33;;;;;;;;;;;;;;;21.99;54.38;100204.88;2101714;28;3874;-37
2021/05/12 02:56:34;;;;;;;;;;;;;;;21.97;54.46;100204.44;2102402;28;4022;-36
2021/05/12 02:57:35;;;;;;;;;;;;;;;21.98;54.17;100208.94;2102294;28;4046;-37
2021/05/12 02:58:37;;;;;;;;;;;;;;;21.98;54.29;100211.78;2100136;28;4069;-38
2021/05/12 02:59:38;;;;;;;;;;;;;;;21.97;54.19;100215.81;2102221;28;3887;-37
2021/05/12 03:00:39;;;;;;;;;;;;;;;21.98;54.07;100217.47;2100698;28;3949;-32
2021/05/12 03:01:40;;;;;;;;;;;;;;;21.97;54.31;100218.66;2102032;28;4956;-35
2021/05/12 03:02:42;;;;;;;;;;;;;;;21.97;54.27;100222.38;2101858;28;4376;-34
2021/05/12 03:03:43;;;;;;;;;;;;;;;21.96;54.32;100220.69;2099237;28;4154;-38
2021/05/12 03:04:44;;;;;;;;;;;;;;;21.97;54.24;100227.22;2101661;28;4039;-34
2021/05/12 03:05:45;;;;;;;;;;;;;;;21.98;54.34;100229.69;2100835;28;3912;-36
2021/05/12 03:06:46;;;;;;;;;;;;;;;21.97;54.16;100233.75;2101881;28;4043;-36
2021/05/12 03:07:48;;;;;;;;;;;;;;;21.97;54.22;100232.91;2101769;28;4142;-34
2021/05/12 03:08:49;;;;;;;;;;;;;;;21.97;54.29;100227.22;2101289;28;3884;-37
2021/05/12 03:09:51;;;;;;;;;;;;;;;21.97;54.35;100232.91;2101558;28;3858;-38
2021/05/12 03:10:52;;;;;;;;;;;;;;;21.97;54.20;100235.75;2100471;28;3994;-33
2021/05/12 03:11:53;;;;;;;;;;;;;;;21.97;54.31;100232.91;2102357;28;3856;-36
2021/05/12 03:12:54;;;;;;;;;;;;;;;21.96;54.27;100223.53;2101598;28;4018;-37
2021/05/12 03:13:56;;;;;;;;;;;;;;;21.96;54.22;100212.16;2100390;28;4047;-36
2021/05/12 03:14:57;;;;;;;;;;;;;;;21.97;54.32;100218.66;2101796;28;4008;-36
2021/05/12 03:15:58;;;;;;;;;;;;;;;21.95;54.23;100221.91;2100325;28;3824;-35
2021/05/12 03:17:00;;;;;;;;;;;;;;;21.96;54.14;100217.03;2101360;28;4047;-37
2021/05/12 03:18:01;;;;;;;;;;;;;;;21.95;54.07;100218.25;2100969;28;4010;-37
2021/05/12 03:19:02;;;;;;;;;;;;;;;21.95;54.04;100223.94;2101073;28;4024;-37
2021/05/12 03:20:03;;;;;;;;;;;;;;;21.94;54.26;100227.97;2102112;28;3988;-36
2021/05/12 03:21:04;;;;;;;;;;;;;;;21.95;54.43;100219.06;2101374;28;4044;-38
2021/05/12 03:22:06;;;;;;;;;;;;;;;21.95;54.25;100218.25;2101159;28;3853;-34
2021/05/12 03:23:07;;;;;;;;;;;;;;;21.94;54.04;100222.25;2101430;28;3993;-35
2021/05/12 03:24:08;;;;;;;;;;;;;;;21.95;53.95;100224.75;2101408;28;4254;-34
2021/05/12 03:25:09;;;;;;;;;;;;;;;21.93;54.25;100214.94;2101525;28;4074;-36
2021/05/12 03:26:11;;;;;;;;;;;;;;;21.94;54.23;100217.38;2098837;28;4667;-35
2021/05/12 03:27:12;;;;;;;;;;;;;;;21.94;54.26;100216.56;2099519;28;4315;-33
2021/05/12 03:28:13;;;;;;;;;;;;;;;21.94;54.16;100216.56;2099898;28;4061;-32
2021/05/12 03:29:15;;;;;;;;;;;;;;;21.93;54.11;100220.63;2101035;28;4022;-35
2021/05/12 03:30:16;;;;;;;;;;;;;;;21.93;54.10;100218.59;2101353;28;3892;-36
2021/05/12 03:31:17;;;;;;;;;;;;;;;21.92;54.00;100222.66;2098343;28;4107;-36
2021/05/12 03:32:18;;;;;;;;;;;;;;;21.92;54.07;100225.50;2094343;28;4128;-35
2021/05/12 03:33:19;;;;;;;;;;;;;;;21.92;54.01;100222.66;2101380;28;4048;-35
2021/05/12 03:34:21;;;;;;;;;;;;;;;21.92;54.21;100216.97;2099077;28;3857;-33
2021/05/12 03:35:22;;;;;;;;;;;;;;;21.92;53.99;100227.53;2101335;28;4020;-37
2021/05/12 03:36:23;;;;;;;;;;;;;;;21.92;54.01;100219.81;2099197;28;4130;-35
2021/05/12 03:37:24;;;;;;;;;;;;;;;21.92;54.03;100221.84;2101490;28;4071;-31
2021/05/12 03:38:26;;;;;;;;;;;;;;;21.92;53.96;100219.00;2101645;28;4061;-37
2021/05/12 03:39:28;;;;;;;;;;;;;;;21.92;54.01;100219.00;2099463;28;4038;-32
2021/05/12 03:40:29;;;;;;;;;;;;;;;21.91;54.04;100226.69;2101838;28;4033;-34
2021/05/12 03:41:30;;;;;;;;;;;;;;;21.92;54.08;100233.22;2100856;28;4239;-33
2021/05/12 03:42:31;;;;;;;;;;;;;;;21.91;54.10;100225.88;2101458;28;3985;-36
2021/05/12 03:43:34;;;;;;;;;;;;;;;21.91;54.08;100226.69;2098917;28;4311;-36
2021/05/12 03:44:35;;;;;;;;;;;;;;;21.90;54.04;100236.44;2101439;28;4045;-38
2021/05/12 03:45:36;;;;;;;;;;;;;;;21.91;54.02;100229.53;2101613;28;4012;-32
2021/05/12 03:46:37;;;;;;;;;;;;;;;21.90;54.02;100227.06;2101649;28;3833;-38
2021/05/12 03:47:39;;;;;;;;;;;;;;;21.91;54.04;100220.16;2099549;28;4058;-35
2021/05/12 03:48:40;;;;;;;;;;;;;;;21.90;54.02;100215.69;2101197;28;3896;-34
2021/05/12 03:49:41;;;;;;;;;;;;;;;21.89;53.94;100212.03;2092042;28;4199;-37
2021/05/12 03:50:42;;;;;;;;;;;;;;;21.88;54.02;100212.38;2092555;28;4021;-38
2021/05/12 03:51:43;;;;;;;;;;;;;;;21.88;53.91;100218.06;2096685;28;3933;-36
2021/05/12 03:52:45;;;;;;;;;;;;;;;21.88;53.98;100221.75;2100629;28;4045;-34
2021/05/12 03:53:46;;;;;;;;;;;;;;;21.88;53.97;100221.75;2100125;28;4034;-33
2021/05/12 03:54:50;;;;;;;;;;;;;;;21.88;53.93;100235.97;2101511;28;3857;-36
2021/05/12 03:55:51;;;;;;;;;;;;;;;21.88;54.01;100223.78;2100900;28;4040;-34
2021/05/12 03:56:52;;;;;;;;;;;;;;;21.88;54.06;100235.16;2102037;28;4085;-33
2021/05/12 03:57:54;;;;;;;;;;;;;;;21.87;53.98;100231.50;2100635;28;4118;-35
2021/05/12 03:58:55;;;;;;;;;;;;;;;21.87;53.96;100234.34;2101564;28;3905;-38
2021/05/12 03:59:57;;;;;;;;;;;;;;;21.88;53.99;100232.31;2101209;28;3997;-35
2021/05/12 04:00:58;;;;;;;;;;;;;;;21.87;54.01;100236.38;2098449;28;3970;-36
2021/05/12 04:01:59;;;;;;;;;;;;;;;21.86;53.94;100235.56;2101681;28;3850;-38
2021/05/12 04:03:00;;;;;;;;;;;;;;;21.87;53.88;100233.53;2100815;28;4012;-35
2021/05/12 04:04:05;;;;;;;;;;;;;;;21.87;53.94;100242.06;2101321;28;3962;-34
2021/05/12 04:05:07;;;;;;;;;;;;;;;21.87;53.96;100236.38;2098070;28;3946;-36
2021/05/12 04:06:08;;;;;;;;;;;;;;;21.86;53.88;100237.56;2102146;28;3995;-37
2021/05/12 04:07:09;;;;;;;;;;;;;;;21.86;53.74;100234.69;2101454;28;4005;-36
2021/05/12 04:08:10;;;;;;;;;;;;;;;21.85;54.00;100227.38;2100966;28;4049;-35
2021/05/12 04:09:11;;;;;;;;;;;;;;;21.85;54.07;100228.19;2101792;28;3954;-36
2021/05/12 04:10:13;;;;;;;;;;;;;;;21.84;53.98;100222.88;2101242;28;3946;-37
2021/05/12 04:11:14;;;;;;;;;;;;;;;21.84;53.89;100228.59;2098068;28;3864;-34
2021/05/12 04:12:15;;;;;;;;;;;;;;;21.83;53.87;100226.91;2101225;28;3851;-38
2021/05/12 04:13:17;;;;;;;;;;;;;;;21.83;53.89;100221.22;2101147;28;3861;-36
2021/05/12 04:14:18;;;;;;;;;;;;;;;21.82;53.70;100220.41;2092788;28;4033;-34
2021/05/12 04:15:19;;;;;;;;;;;;;;;21.82;53.74;100222.44;2099913;28;6247;-35
2021/05/12 04:16:20;;;;;;;;;;;;;;;21.82;53.57;100219.56;2101368;28;3844;-34
2021/05/12 04:17:22;;;;;;;;;;;;;;;21.81;53.67;100218.75;2100957;28;4053;-35
2021/05/12 04:18:23;;;;;;;;;;;;;;;21.81;53.72;100221.59;2101639;28;4032;-36
2021/05/12 04:19:24;;;;;;;;;;;;;;;21.82;53.77;100228.13;2101240;28;3989;-35
2021/05/12 04:20:25;;;;;;;;;;;;;;;21.82;53.62;100230.97;2099799;28;4032;-38
2021/05/12 04:21:27;;;;;;;;;;;;;;;21.81;53.73;100221.59;2101513;28;4010;-39
2021/05/12 04:22:28;;;;;;;;;;;;;;;21.82;53.78;100222.44;2100274;28;3765;-38
2021/05/12 04:23:29;;;;;;;;;;;;;;;21.82;53.59;100228.94;2101968;28;3874;-36
2021/05/12 04:24:30;;;;;;;;;;;;;;;21.83;53.61;100235.44;2100846;28;4004;-35
2021/05/12 04:25:33;;;;;;;;;;;;;;;21.83;53.57;100229.75;2100106;28;3932;-38
2021/05/12 04:26:34;;;;;;;;;;;;;;;21.82;53.69;100231.78;2101046;28;3867;-38
2021/05/12 04:27:35;;;;;;;;;;;;;;;21.82;53.80;100242.34;2100594;28;4256;-36
2021/05/12 04:28:36;;;;;;;;;;;;;;;21.82;53.53;100242.34;2100770;28;4019;-35
2021/05/12 04:29:37;;;;;;;;;;;;;;;21.83;53.64;100241.16;2099894;28;3879;-37
2021/05/12 04:30:39;;;;;;;;;;;;;;;21.81;53.54;100244.38;2099956;28;4040;-34
2021/05/12 04:31:40;;;;;;;;;;;;;;;21.83;53.59;100249.69;2100245;28;3897;-37
2021/05/12 04:32:41;;;;;;;;;;;;;;;21.82;53.54;100250.91;2101054;28;3880;-35
2021/05/12 04:33:42;;;;;;;;;;;;;;;21.80;53.65;100246.38;2101557;28;4014;-38
2021/05/12 04:34:45;;;;;;;;;;;;;;;21.81;53.53;100252.94;2101426;28;4004;-36
2021/05/12 04:35:47;;;;;;;;;;;;;;;21.82;53.58;100256.59;2099740;28;3869;-34
2021/05/12 04:36:48;;;;;;;;;;;;;;;21.82;53.62;100256.59;2100066;28;4057;-37
2021/05/12 04:37:50;;;;;;;;;;;;;;;21.82;53.59;100253.75;2101691;28;4198;-36
2021/05/12 04:38:51;;;;;;;;;;;;;;;21.82;53.59;100259.44;2101482;28;4053;-34
2021/05/12 04:39:52;;;;;;;;;;;;;;;21.80;53.66;100257.78;2100832;28;4018;-34
2021/05/12 04:40:53;;;;;;;;;;;;;;;21.80;53.59;100263.47;2100724;28;3885;-35
2021/05/12 04:41:55;;;;;;;;;;;;;;;21.80;53.45;100266.31;2100666;28;4145;-36
2021/05/12 04:42:56;;;;;;;;;;;;;;;21.80;53.61;100259.81;2099493;28;4016;-34
2021/05/12 04:43:58;;;;;;;;;;;;;;;21.80;53.55;100268.34;2101055;28;4216;-34
2021/05/12 04:44:59;;;;;;;;;;;;;;;21.80;53.73;100274.03;2100839;28;4088;-38
2021/05/12 04:46:02;;;;;;;;;;;;;;;21.80;53.47;100262.66;2099654;28;3975;-35
2021/05/12 04:47:04;;;;;;;;;;;;;;;21.80;53.69;100265.50;2100761;28;3797;-36
2021/05/12 04:48:05;;;;;;;;;;;;;;;21.80;53.56;100271.19;2101317;28;3878;-37
2021/05/12 04:49:07;;;;;;;;;;;;;;;21.79;53.45;100270.38;2100860;28;3938;-39
2021/05/12 04:50:08;;;;;;;;;;;;;;;21.79;53.58;100276.06;2100393;28;6084;-38
2021/05/12 04:51:10;;;;;;;;;;;;;;;21.79;53.56;100281.75;2101146;28;3891;-37
2021/05/12 04:52:13;;;;;;;;;;;;;;;21.79;53.47;100284.59;2102740;28;4047;-34
2021/05/12 04:53:14;;;;;;;;;;;;;;;21.80;53.62;100288.28;2102740;28;4042;-36
2021/05/12 04:54:15;;;;;;;;;;;;;;;21.79;53.59;100286.63;2102726;28;4041;-38
2021/05/12 04:55:16;;;;;;;;;;;;;;;21.79;53.59;100289.50;2101806;28;4045;-36
2021/05/12 04:56:17;;;;;;;;;;;;;;;21.78;53.61;100297.22;2102518;28;4026;-36
2021/05/12 04:57:19;;;;;;;;;;;;;;;21.78;53.58;100302.91;2102456;28;4316;-36
2021/05/12 04:58:20;;;;;;;;;;;;;;;21.78;53.50;100314.28;2102643;28;3890;-34
2021/05/12 04:59:21;;;;;;;;;;;;;;;21.79;53.59;100303.72;2103112;28;4034;-34
2021/05/12 05:00:22;;;;;;;;;;;;;;;21.79;53.42;100310.25;2101586;28;3898;-34
2021/05/12 05:01:24;;;;;;;;;;;;;;;21.78;53.45;100311.44;2103119;28;3886;-37
2021/05/12 05:02:25;;;;;;;;;;;;;;;21.78;53.55;100314.28;2101989;28;4026;-39
2021/05/12 05:03:27;;;;;;;;;;;;;;;21.79;53.42;100315.94;2103482;28;4022;-37
2021/05/12 05:04:28;;;;;;;;;;;;;;;21.77;53.56;100315.47;2102622;28;4234;-32
2021/05/12 05:05:29;;;;;;;;;;;;;;;21.79;53.46;100320.81;2101861;28;4105;-36
2021/05/12 05:06:33;;;;;;;;;;;;;;;21.78;53.67;100317.13;2097069;28;4069;-36
2021/05/12 05:07:34;;;;;;;;;;;;;;;21.77;53.52;100318.31;2097471;28;3895;-36
2021/05/12 05:08:35;;;;;;;;;;;;;;;21.78;53.55;100319.16;2097023;28;4239;-36
2021/05/12 05:09:37;;;;;;;;;;;;;;;21.78;53.40;100322.00;2102926;28;3879;-38
2021/05/12 05:10:39;;;;;;;;;;;;;;;21.77;53.49;100324.00;2101680;28;4032;-35
2021/05/12 05:11:40;;;;;;;;;;;;;;;21.78;53.44;100324.88;2102387;28;3896;-35
2021/05/12 05:12:41;;;;;;;;;;;;;;;21.77;53.62;100321.16;2101964;28;4058;-37
2021/05/12 05:13:42;;;;;;;;;;;;;;;21.77;53.53;100324.00;2102955;28;3996;-36
2021/05/12 05:14:44;;;;;;;;;;;;;;;21.77;53.56;100318.31;2102867;28;4071;-34
2021/05/12 05:15:45;;;;;;;;;;;;;;;21.77;53.54;100323.19;2102186;28;3969;-34
2021/05/12 05:16:47;;;;;;;;;;;;;;;21.77;53.64;100314.66;2102943;28;3818;-34
2021/05/12 05:17:48;;;;;;;;;;;;;;;21.77;53.63;100318.31;2102920;28;4005;-32
2021/05/12 05:18:49;;;;;;;;;;;;;;;21.77;53.46;100321.16;2102506;28;4071;-36
2021/05/12 05:19:50;;;;;;;;;;;;;;;21.76;53.63;100310.97;2101134;28;4010;-36